createdAt,value
2022-10-29T00:01:03.067Z,11.89
2022-10-29T00:03:30.757Z,11.94
2022-10-29T00:06:06.248Z,11.94
2022-10-29T00:08:36.287Z,11.94
2022-10-29T00:11:11.455Z,11.93
2022-10-29T00:13:39.450Z,11.96
2022-10-29T00:16:12.892Z,11.96
2022-10-29T00:18:41.107Z,11.93
2022-10-29T00:21:11.815Z,11.93
2022-10-29T00:23:40.092Z,11.94
2022-10-29T00:26:07.975Z,11.94
2022-10-29T00:28:35.705Z,11.92
2022-10-29T00:31:12.661Z,11.93
2022-10-29T00:33:40.545Z,11.92
2022-10-29T00:36:13.679Z,11.92
2022-10-29T00:38:41.344Z,11.91
2022-10-29T00:41:12.190Z,11.91
2022-10-29T00:43:44.723Z,11.93
2022-10-29T00:46:23.896Z,11.92
2022-10-29T00:48:54.106Z,11.96
2022-10-29T00:51:22.046Z,11.95
2022-10-29T00:53:56.147Z,11.95
2022-10-29T00:56:27.120Z,11.98
2022-10-29T00:58:54.953Z,11.98
2022-10-29T01:01:22.836Z,11.95
2022-10-29T01:03:51.289Z,11.93
2022-10-29T01:06:19.383Z,11.91
2022-10-29T01:08:47.045Z,11.91
2022-10-29T01:11:32.928Z,11.89
2022-10-29T01:14:34.185Z,11.91
2022-10-29T01:17:16.865Z,11.95
2022-10-29T01:20:04.204Z,11.95
2022-10-29T01:22:37.494Z,11.93
2022-10-29T01:25:20.324Z,11.94
2022-10-29T01:28:04.295Z,11.93
2022-10-29T01:31:09.555Z,11.93
2022-10-29T01:33:54.567Z,11.98
2022-10-29T01:36:34.077Z,12.01
2022-10-29T01:39:24.369Z,12.05
2022-10-29T01:42:03.716Z,12.08
2022-10-29T01:44:36.989Z,12.10
2022-10-29T01:47:15.259Z,12.09
2022-10-29T01:49:46.796Z,12.13
2022-10-29T01:52:17.734Z,12.14
2022-10-29T01:54:47.430Z,12.14
2022-10-29T01:57:32.087Z,12.17
2022-10-29T02:00:08.226Z,12.16
2022-10-29T02:03:06.332Z,12.18
2022-10-29T02:05:58.479Z,12.18
2022-10-29T02:08:28.921Z,12.18
2022-10-29T02:11:08.777Z,12.20
2022-10-29T02:13:51.127Z,12.18
2022-10-29T02:16:19.092Z,12.21
2022-10-29T02:18:50.691Z,12.22
2022-10-29T02:21:19.552Z,12.23
2022-10-29T02:23:48.002Z,12.24
2022-10-29T02:26:15.940Z,12.24
2022-10-29T02:28:43.733Z,12.28
2022-10-29T02:31:11.693Z,12.30
2022-10-29T02:33:39.335Z,12.32
2022-10-29T02:36:07.386Z,12.32
2022-10-29T02:38:35.118Z,12.32
2022-10-29T02:41:02.768Z,12.32
2022-10-29T02:43:30.333Z,12.30
2022-10-29T02:46:19.122Z,12.30
2022-10-29T02:48:47.030Z,12.28
2022-10-29T02:51:15.037Z,12.28
2022-10-29T02:53:42.800Z,12.29
2022-10-29T02:56:11.478Z,12.26
2022-10-29T02:58:39.174Z,12.19
2022-10-29T03:01:08.060Z,12.19
2022-10-29T03:03:35.885Z,12.20
2022-10-29T03:06:03.494Z,12.21
2022-10-29T03:08:31.145Z,12.21
2022-10-29T03:10:58.707Z,12.22
2022-10-29T03:13:26.427Z,12.23
2022-10-29T03:15:54.145Z,12.22
2022-10-29T03:18:21.893Z,12.21
2022-10-29T03:20:49.545Z,12.21
2022-10-29T03:23:17.349Z,12.21
2022-10-29T03:25:45.004Z,12.22
2022-10-29T03:28:12.605Z,12.26
2022-10-29T03:30:40.265Z,12.30
2022-10-29T03:33:07.887Z,12.33
2022-10-29T03:35:35.812Z,12.29
2022-10-29T03:38:03.620Z,12.32
2022-10-29T03:40:31.243Z,12.32
2022-10-29T03:42:59.145Z,12.33
2022-10-29T03:45:26.877Z,12.33
2022-10-29T03:47:54.870Z,12.32
2022-10-29T03:50:22.660Z,12.30
2022-10-29T03:52:50.212Z,12.29
2022-10-29T03:55:17.929Z,12.28
2022-10-29T03:57:45.554Z,12.30
2022-10-29T04:00:13.747Z,12.31
2022-10-29T04:02:41.680Z,12.32
2022-10-29T04:05:09.985Z,12.32
2022-10-29T04:07:37.666Z,12.34
2022-10-29T04:10:05.624Z,12.33
2022-10-29T04:12:33.332Z,12.33
2022-10-29T04:15:00.931Z,12.32
2022-10-29T04:17:28.564Z,12.30
2022-10-29T04:19:56.188Z,12.29
2022-10-29T04:30:46.957Z,12.17
2022-10-29T04:33:14.588Z,12.15
2022-10-29T04:35:42.482Z,12.13
2022-10-29T04:38:11.935Z,12.13
2022-10-29T04:40:40.032Z,12.13
2022-10-29T04:43:07.755Z,12.14
2022-10-29T04:45:35.390Z,12.11
2022-10-29T04:48:04.772Z,12.11
2022-10-29T04:50:33.761Z,12.13
2022-10-29T04:53:02.936Z,12.16
2022-10-29T04:55:31.227Z,12.19
2022-10-29T04:57:59.164Z,12.19
2022-10-29T05:00:26.866Z,12.18
2022-10-29T05:02:55.049Z,12.21
2022-10-29T05:05:23.197Z,12.21
2022-10-29T05:07:50.855Z,12.19
2022-10-29T05:10:18.709Z,12.16
2022-10-29T05:12:46.384Z,12.14
2022-10-29T05:15:13.998Z,12.12
2022-10-29T05:17:41.622Z,12.13
2022-10-29T05:20:09.797Z,12.12
2022-10-29T05:22:37.380Z,12.13
2022-10-29T05:25:05.217Z,12.13
2022-10-29T05:27:32.806Z,12.09
2022-10-29T05:30:00.524Z,12.07
2022-10-29T05:32:31.517Z,12.07
2022-10-29T05:34:59.198Z,12.07
2022-10-29T05:37:28.898Z,12.08
2022-10-29T05:39:56.571Z,12.05
2022-10-29T05:42:24.234Z,12.05
2022-10-29T05:44:51.817Z,12.02
2022-10-29T05:47:19.636Z,12.03
2022-10-29T05:49:47.261Z,12.02
2022-10-29T05:52:14.842Z,11.99
2022-10-29T05:54:42.509Z,12.01
2022-10-29T05:57:10.343Z,12.01
2022-10-29T05:59:37.975Z,11.99
2022-10-29T06:02:05.644Z,11.99
2022-10-29T06:04:35.483Z,11.99
2022-10-29T06:07:03.148Z,12.00
2022-10-29T06:09:30.798Z,12.01
2022-10-29T06:11:58.737Z,12.00
2022-10-29T06:14:26.366Z,11.97
2022-10-29T06:16:53.963Z,11.97
2022-10-29T06:19:21.631Z,11.95
2022-10-29T06:21:49.218Z,11.96
2022-10-29T06:24:16.817Z,11.96
2022-10-29T06:26:44.437Z,11.96
2022-10-29T06:29:12.057Z,11.95
2022-10-29T06:31:39.655Z,11.96
2022-10-29T06:34:07.277Z,11.93
2022-10-29T06:36:34.983Z,11.96
2022-10-29T06:39:02.735Z,11.99
2022-10-29T06:41:30.331Z,12.04
2022-10-29T06:43:57.972Z,12.04
2022-10-29T06:46:25.601Z,12.07
2022-10-29T06:48:53.261Z,12.08
2022-10-29T06:53:55.190Z,12.08
2022-10-29T06:56:23.412Z,12.10
2022-10-29T06:58:51.021Z,12.11
2022-10-29T07:01:18.765Z,12.13
2022-10-29T07:03:46.466Z,12.20
2022-10-29T07:06:14.927Z,12.24
2022-10-29T07:08:42.543Z,12.27
2022-10-29T07:11:10.189Z,12.32
2022-10-29T07:13:37.861Z,12.34
2022-10-29T07:16:05.739Z,12.37
2022-10-29T07:18:33.905Z,12.39
2022-10-29T07:21:04.249Z,12.41
2022-10-29T07:23:31.979Z,12.35
2022-10-29T07:25:59.601Z,12.31
2022-10-29T07:28:27.278Z,12.30
2022-10-29T07:31:00.408Z,12.31
2022-10-29T07:33:31.435Z,12.31
2022-10-29T07:36:00.211Z,12.30
2022-10-29T07:38:28.066Z,12.25
2022-10-29T07:40:55.909Z,12.23
2022-10-29T07:43:23.943Z,12.23
2022-10-29T07:45:52.289Z,12.26
2022-10-29T07:48:21.471Z,12.26
2022-10-29T07:50:49.997Z,12.28
2022-10-29T07:53:17.921Z,12.33
2022-10-29T07:55:45.850Z,12.28
2022-10-29T07:58:13.925Z,12.33
2022-10-29T08:00:42.294Z,12.29
2022-10-29T08:03:12.689Z,12.24
2022-10-29T08:05:42.796Z,12.18
2022-10-29T08:08:10.910Z,12.09
2022-10-29T08:10:38.658Z,12.11
2022-10-29T08:13:07.816Z,12.18
2022-10-29T08:15:36.389Z,12.23
2022-10-29T08:18:05.906Z,12.27
2022-10-29T08:20:33.520Z,12.39
2022-10-29T08:23:01.968Z,12.45
2022-10-29T08:25:30.031Z,12.54
2022-10-29T08:28:05.386Z,12.59
2022-10-29T08:30:33.739Z,12.64
2022-10-29T08:33:02.298Z,12.65
2022-10-29T08:35:30.458Z,12.68
2022-10-29T08:37:58.550Z,12.70
2022-10-29T08:40:55.005Z,12.72
2022-10-29T08:43:37.494Z,12.72
2022-10-29T08:46:05.762Z,12.72
2022-10-29T08:48:39.116Z,12.69
2022-10-29T08:51:15.920Z,12.70
2022-10-29T08:53:54.365Z,12.66
2022-10-29T08:56:46.462Z,12.72
2022-10-29T08:59:17.808Z,12.75
2022-10-29T09:01:46.073Z,12.78
2022-10-29T09:04:25.666Z,12.83
2022-10-29T09:07:14.542Z,12.86
2022-10-29T09:10:03.710Z,12.92
2022-10-29T09:12:52.533Z,12.91
2022-10-29T09:15:35.383Z,12.98
2022-10-29T09:18:45.686Z,12.92
2022-10-29T09:21:23.447Z,12.86
2022-10-29T09:24:09.916Z,12.93
2022-10-29T09:26:58.872Z,12.94
2022-10-29T09:29:40.292Z,13.02
2022-10-29T09:32:13.929Z,13.03
2022-10-29T09:34:46.224Z,13.08
2022-10-29T09:37:50.465Z,13.13
2022-10-29T09:40:36.875Z,13.22
2022-10-29T09:43:16.549Z,13.35
2022-10-29T09:45:56.098Z,13.44
2022-10-29T09:48:31.910Z,13.47
2022-10-29T09:51:22.931Z,13.58
2022-10-29T09:53:52.284Z,13.60
2022-10-29T09:56:20.122Z,13.67
2022-10-29T09:58:54.667Z,13.73
2022-10-29T10:01:22.652Z,13.75
2022-10-29T10:06:29.087Z,13.85
2022-10-29T10:09:06.907Z,13.76
2022-10-29T10:11:50.651Z,13.75
2022-10-29T10:14:21.892Z,13.85
2022-10-29T10:16:59.383Z,13.86
2022-10-29T10:19:29.782Z,13.91
2022-10-29T10:22:00.496Z,13.92
2022-10-29T10:24:34.289Z,13.94
2022-10-29T10:27:22.590Z,13.98
2022-10-29T10:30:16.479Z,14.05
2022-10-29T10:32:44.108Z,14.09
2022-10-29T10:35:31.034Z,14.19
2022-10-29T10:38:00.652Z,14.27
2022-10-29T10:40:29.206Z,14.34
2022-10-29T10:42:57.003Z,14.40
2022-10-29T10:45:28.709Z,14.48
2022-10-29T10:47:59.943Z,14.51
2022-10-29T10:50:30.629Z,14.54
2022-10-29T10:53:05.493Z,14.61
2022-10-29T10:55:36.194Z,14.63
2022-10-29T10:58:11.183Z,14.66
2022-10-29T11:00:44.872Z,14.73
2022-10-29T11:03:37.516Z,14.78
2022-10-29T11:06:25.426Z,14.87
2022-10-29T11:09:01.131Z,14.95
2022-10-29T11:11:38.585Z,15.07
2022-10-29T11:14:27.358Z,15.19
2022-10-29T11:16:58.894Z,15.33
2022-10-29T11:19:55.759Z,15.49
2022-10-29T11:22:39.254Z,15.63
2022-10-29T11:25:15.443Z,15.75
2022-10-29T11:28:11.788Z,15.88
2022-10-29T11:30:56.856Z,16.01
2022-10-29T11:33:48.092Z,16.08
2022-10-29T11:36:22.809Z,16.16
2022-10-29T11:39:03.106Z,16.27
2022-10-29T11:41:45.873Z,16.37
2022-10-29T11:44:15.863Z,16.42
2022-10-29T11:46:46.307Z,16.48
2022-10-29T11:49:58.360Z,16.54
2022-10-29T11:52:38.070Z,16.64
2022-10-29T11:55:31.537Z,16.72
2022-10-29T11:58:29.717Z,16.79
2022-10-29T12:01:13.798Z,16.85
2022-10-29T12:03:55.086Z,16.90
2022-10-29T12:06:41.320Z,16.93
2022-10-29T12:09:33.444Z,17.00
2022-10-29T12:12:13.933Z,17.08
2022-10-29T12:14:59.130Z,17.11
2022-10-29T12:17:39.843Z,17.12
2022-10-29T12:20:23.441Z,17.16
2022-10-29T12:23:07.910Z,17.20
2022-10-29T12:25:50.992Z,17.22
2022-10-29T12:29:10.560Z,17.28
2022-10-29T12:31:47.195Z,17.35
2022-10-29T12:34:26.781Z,17.43
2022-10-29T12:36:57.468Z,17.48
2022-10-29T12:39:35.947Z,17.55
2022-10-29T12:42:11.484Z,17.60
2022-10-29T12:44:59.488Z,17.64
2022-10-29T12:47:27.103Z,17.69
2022-10-29T12:50:07.512Z,17.74
2022-10-29T12:52:58.392Z,17.77
2022-10-29T12:55:26.711Z,17.75
2022-10-29T12:57:54.380Z,17.80
2022-10-29T13:00:25.046Z,17.82
2022-10-29T13:02:53.873Z,17.81
2022-10-29T13:05:38.649Z,17.81
2022-10-29T13:08:06.162Z,17.82
2022-10-29T13:10:36.751Z,17.80
2022-10-29T13:13:06.310Z,17.77
2022-10-29T13:15:44.207Z,17.77
2022-10-29T13:18:35.515Z,17.77
2022-10-29T13:21:07.213Z,17.78
2022-10-29T13:23:36.255Z,17.80
2022-10-29T13:26:08.352Z,17.79
2022-10-29T13:28:38.883Z,17.81
2022-10-29T13:31:09.412Z,17.83
2022-10-29T13:33:36.936Z,17.86
2022-10-29T13:36:07.267Z,17.91
2022-10-29T13:39:07.870Z,17.95
2022-10-29T13:41:43.720Z,17.98
2022-10-29T13:44:14.738Z,18.04
2022-10-29T13:46:51.249Z,18.05
2022-10-29T13:49:20.801Z,18.09
2022-10-29T13:52:04.485Z,18.12
2022-10-29T13:54:47.145Z,18.15
2022-10-29T13:57:14.737Z,18.21
2022-10-29T13:59:46.714Z,18.25
2022-10-29T14:02:25.411Z,18.31
2022-10-29T14:04:58.051Z,18.38
2022-10-29T14:07:35.646Z,18.43
2022-10-29T14:10:13.804Z,18.49
2022-10-29T14:12:43.545Z,18.55
2022-10-29T14:15:19.708Z,18.59
2022-10-29T14:17:47.391Z,18.62
2022-10-29T14:20:29.859Z,18.67
2022-10-29T14:22:57.753Z,18.73
2022-10-29T14:25:25.483Z,18.74
2022-10-29T14:28:18.325Z,18.77
2022-10-29T14:30:47.872Z,18.79
2022-10-29T14:33:23.138Z,18.80
2022-10-29T14:35:51.064Z,18.80
2022-10-29T14:38:20.790Z,18.80
2022-10-29T14:40:48.824Z,18.82
2022-10-29T14:43:27.399Z,18.80
2022-10-29T14:46:09.727Z,18.78
2022-10-29T14:48:39.983Z,18.75
2022-10-29T14:51:07.677Z,18.72
2022-10-29T14:53:38.585Z,18.69
2022-10-29T14:56:12.538Z,18.62
2022-10-29T14:58:42.404Z,18.58
2022-10-29T15:01:16.899Z,18.51
2022-10-29T15:03:44.669Z,18.44
2022-10-29T15:06:26.647Z,18.39
2022-10-29T15:09:08.599Z,18.34
2022-10-29T15:11:48.550Z,18.24
2022-10-29T15:14:33.546Z,18.19
2022-10-29T15:17:02.277Z,18.11
2022-10-29T15:19:30.135Z,18.02
2022-10-29T15:21:57.965Z,17.94
2022-10-29T15:24:25.876Z,17.89
2022-10-29T15:26:57.819Z,17.81
2022-10-29T15:29:34.841Z,17.77
2022-10-29T15:32:05.424Z,17.72
2022-10-29T15:34:35.851Z,17.66
2022-10-29T15:37:21.957Z,17.59
2022-10-29T15:39:58.406Z,17.51
2022-10-29T15:42:33.192Z,17.44
2022-10-29T15:45:09.894Z,17.35
2022-10-29T15:47:39.908Z,17.27
2022-10-29T15:50:11.135Z,17.17
2022-10-29T15:52:42.420Z,17.10
2022-10-29T15:55:32.884Z,17.01
2022-10-29T15:58:04.147Z,16.92
2022-10-29T16:00:33.269Z,16.83
2022-10-29T16:03:25.746Z,16.75
2022-10-29T16:06:00.732Z,16.67
2022-10-29T16:08:30.153Z,16.57
2022-10-29T16:10:59.037Z,16.48
2022-10-29T16:13:29.615Z,16.40
2022-10-29T16:15:57.512Z,16.31
2022-10-29T16:18:25.317Z,16.23
2022-10-29T16:20:58.440Z,16.16
2022-10-29T16:23:26.157Z,16.08
2022-10-29T16:25:53.833Z,16.00
2022-10-29T16:28:21.448Z,15.92
2022-10-29T16:30:55.104Z,15.85
2022-10-29T16:33:22.797Z,15.78
2022-10-29T16:35:50.457Z,15.70
2022-10-29T16:38:19.614Z,15.65
2022-10-29T16:40:47.265Z,15.57
2022-10-29T16:43:14.877Z,15.52
2022-10-29T16:45:42.539Z,15.44
2022-10-29T16:48:10.294Z,15.38
2022-10-29T16:50:37.893Z,15.33
2022-10-29T16:53:08.430Z,15.26
2022-10-29T16:55:37.908Z,15.20
2022-10-29T16:58:09.538Z,15.15
2022-10-29T17:00:37.818Z,15.10
2022-10-29T17:03:11.090Z,15.04
2022-10-29T17:05:41.994Z,14.99
2022-10-29T17:08:10.256Z,14.93
2022-10-29T17:10:38.555Z,14.90
2022-10-29T17:13:08.354Z,14.85
2022-10-29T17:15:36.033Z,14.81
2022-10-29T17:18:03.683Z,14.76
2022-10-29T17:20:31.329Z,14.72
2022-10-29T17:22:59.059Z,14.67
2022-10-29T17:25:26.718Z,14.62
2022-10-29T17:27:54.776Z,14.57
2022-10-29T17:30:22.632Z,14.52
2022-10-29T17:32:50.256Z,14.49
2022-10-29T17:35:18.027Z,14.43
2022-10-29T17:37:45.758Z,14.37
2022-10-29T17:40:13.568Z,14.33
2022-10-29T17:42:41.204Z,14.28
2022-10-29T17:45:09.723Z,14.24
2022-10-29T17:47:37.391Z,14.22
2022-10-29T17:50:05.266Z,14.19
2022-10-29T17:52:32.888Z,14.16
2022-10-29T17:55:00.529Z,14.13
2022-10-29T17:57:28.225Z,14.09
2022-10-29T17:59:55.931Z,14.05
2022-10-29T18:02:23.890Z,14.02
2022-10-29T18:04:51.662Z,14.00
2022-10-29T18:07:19.327Z,13.96
2022-10-29T18:09:46.924Z,13.94
2022-10-29T18:12:14.610Z,13.92
2022-10-29T18:14:42.215Z,13.89
2022-10-29T18:17:09.891Z,13.86
2022-10-29T18:19:37.578Z,13.85
2022-10-29T18:22:05.210Z,13.82
2022-10-29T18:24:32.835Z,13.78
2022-10-29T18:27:00.487Z,13.75
2022-10-29T18:29:28.133Z,13.74
2022-10-29T18:31:55.758Z,13.70
2022-10-29T18:34:23.446Z,13.68
2022-10-29T18:36:51.103Z,13.66
2022-10-29T18:39:18.761Z,13.62
2022-10-29T18:41:46.377Z,13.62
2022-10-29T18:44:13.995Z,13.61
2022-10-29T18:46:41.638Z,13.57
2022-10-29T18:49:11.219Z,13.54
2022-10-29T18:51:38.865Z,13.52
2022-10-29T18:54:06.936Z,13.50
2022-10-29T18:56:34.612Z,13.51
2022-10-29T18:59:02.460Z,13.59
2022-10-29T19:01:35.420Z,13.70
2022-10-29T19:04:06.719Z,13.83
2022-10-29T19:06:36.544Z,13.96
2022-10-29T19:09:07.455Z,14.04
2022-10-29T19:11:35.300Z,14.07
2022-10-29T19:14:05.768Z,14.06
2022-10-29T19:16:34.133Z,14.04
2022-10-29T19:19:08.340Z,14.01
2022-10-29T19:21:37.603Z,13.98
2022-10-29T19:24:05.930Z,13.92
2022-10-29T19:26:35.656Z,13.87
2022-10-29T19:29:05.166Z,13.82
2022-10-29T19:31:34.725Z,13.77
2022-10-29T19:34:05.030Z,13.73
2022-10-29T19:36:33.290Z,13.66
2022-10-29T19:39:01.760Z,13.62
2022-10-29T19:41:30.615Z,13.53
2022-10-29T19:44:02.255Z,13.50
2022-10-29T19:46:30.767Z,13.47
2022-10-29T19:48:59.454Z,13.40
2022-10-29T19:51:27.661Z,13.38
2022-10-29T19:53:55.614Z,13.34
2022-10-29T19:56:23.301Z,13.28
2022-10-29T19:58:51.114Z,13.23
2022-10-29T20:01:19.380Z,13.21
2022-10-29T20:03:48.069Z,13.18
2022-10-29T20:06:16.467Z,13.15
2022-10-29T20:08:44.240Z,13.13
2022-10-29T20:11:11.895Z,13.08
2022-10-29T20:13:41.018Z,13.07
2022-10-29T20:16:18.322Z,13.04
2022-10-29T20:18:46.922Z,13.00
2022-10-29T20:21:15.456Z,12.95
2022-10-29T20:23:43.575Z,12.96
2022-10-29T20:26:11.882Z,12.92
2022-10-29T20:28:40.459Z,12.87
2022-10-29T20:31:20.346Z,12.83
2022-10-29T20:33:58.802Z,12.81
2022-10-29T20:36:29.381Z,12.81
2022-10-29T20:38:57.188Z,12.81
2022-10-29T20:41:24.861Z,12.78
2022-10-29T20:43:54.862Z,12.77
2022-10-29T20:46:24.044Z,12.76
2022-10-29T20:48:51.787Z,12.76
2022-10-29T20:51:19.900Z,12.74
2022-10-29T20:53:47.643Z,12.76
2022-10-29T20:56:16.556Z,12.75
2022-10-29T20:58:44.615Z,12.72
2022-10-29T21:01:15.343Z,12.74
2022-10-29T21:03:43.647Z,12.72
2022-10-29T21:06:16.921Z,12.69
2022-10-29T21:08:45.782Z,12.62
2022-10-29T21:11:14.841Z,12.63
2022-10-29T21:13:42.657Z,12.61
2022-10-29T21:16:22.540Z,12.61
2022-10-29T21:18:53.269Z,12.58
2022-10-29T21:21:21.279Z,12.57
2022-10-29T21:23:48.998Z,12.60
2022-10-29T21:26:20.205Z,12.59
2022-10-29T21:28:49.765Z,12.58
2022-10-29T21:31:18.238Z,12.56
2022-10-29T21:33:46.078Z,12.54
2022-10-29T21:36:15.154Z,12.54
2022-10-29T21:38:43.084Z,12.52
2022-10-29T21:41:10.821Z,12.50
2022-10-29T21:43:39.695Z,12.50
2022-10-29T21:46:07.680Z,12.49
2022-10-29T21:48:35.488Z,12.49
2022-10-29T21:51:08.560Z,12.48
2022-10-29T21:53:36.233Z,12.48
2022-10-29T21:56:06.445Z,12.47
2022-10-29T21:58:34.311Z,12.43
2022-10-29T22:01:10.964Z,12.42
2022-10-29T22:03:41.635Z,12.42
2022-10-29T22:06:13.683Z,12.41
2022-10-29T22:08:42.129Z,12.37
2022-10-29T22:11:10.127Z,12.36
2022-10-29T22:13:37.882Z,12.35
2022-10-29T22:16:07.468Z,12.30
2022-10-29T22:18:36.023Z,12.26
2022-10-29T22:21:11.799Z,12.21
2022-10-29T22:23:51.023Z,12.17
2022-10-29T22:26:20.081Z,12.13
2022-10-29T22:28:49.229Z,12.09
2022-10-29T22:31:18.388Z,12.07
2022-10-29T22:33:46.575Z,12.06
2022-10-29T22:36:17.131Z,12.05
2022-10-29T22:38:45.340Z,12.04
2022-10-29T22:41:18.563Z,12.03
2022-10-29T22:43:46.288Z,12.03
2022-10-29T22:46:17.254Z,12.03
2022-10-29T22:48:44.864Z,12.03
2022-10-29T22:51:24.173Z,12.03
2022-10-29T22:53:52.833Z,12.01
2022-10-29T22:56:25.834Z,12.01
2022-10-29T22:58:54.199Z,12.03
2022-10-29T23:01:27.139Z,12.03
2022-10-29T23:03:54.960Z,12.04
2022-10-29T23:06:24.478Z,12.02
2022-10-29T23:08:54.301Z,12.03
2022-10-29T23:11:25.095Z,12.01
2022-10-29T23:13:58.224Z,11.99
2022-10-29T23:16:28.748Z,11.97
2022-10-29T23:18:59.245Z,12.00
2022-10-29T23:21:27.542Z,12.00
2022-10-29T23:23:55.636Z,11.98
2022-10-29T23:26:25.039Z,11.95
2022-10-29T23:28:52.842Z,11.91
2022-10-29T23:31:23.889Z,11.89
2022-10-29T23:33:53.935Z,11.89
2022-10-29T23:36:23.444Z,11.86
2022-10-29T23:38:58.922Z,11.84
2022-10-29T23:41:28.153Z,11.77
2022-10-29T23:43:55.860Z,11.76
2022-10-29T23:46:23.655Z,11.78
2022-10-29T23:48:51.302Z,11.77
2022-10-29T23:51:19.328Z,11.70
2022-10-29T23:53:49.200Z,11.64
2022-10-29T23:56:19.387Z,11.67
2022-10-29T23:58:46.963Z,11.74
